Time;durP1;ratioP1;P1;durP2;ratioP2;P2;SDS_P1;SDS_P2;PMS_P1;PMS_P2;Temp;Humidity;BMP_temperature;BMP_pressure;BME280_temperature;BME280_humidity;BME280_pressure;Samples;Min_cycle;Max_cycle;Signal;HPM_P1;HPM_P2
2022/04/11 00:01:32;;;;;;;12.40;10.30;;;1.40;99.90;;;;;;4905030;29;20193;-85
2022/04/11 00:03:57;;;;;;;13.97;8.67;;;1.40;99.90;;;;;;4911327;29;20209;-85
2022/04/11 00:06:23;;;;;;;19.20;11.57;;;1.40;99.90;;;;;;4913471;29;20293;-86
2022/04/11 00:08:49;;;;;;;20.03;11.00;;;1.30;99.90;;;;;;4913201;29;20182;-86
2022/04/11 00:11:14;;;;;;;16.27;11.90;;;1.30;99.90;;;;;;4913437;29;20633;-86
2022/04/11 00:13:40;;;;;;;25.80;13.20;;;1.20;99.90;;;;;;4911154;29;20201;-86
2022/04/11 00:16:08;;;;;;;20.07;12.73;;;1.20;99.90;;;;;;4908013;29;20296;-86
2022/04/11 00:18:36;;;;;;;22.35;12.57;;;1.20;99.90;;;;;;4913708;29;20190;-85
2022/04/11 00:21:03;;;;;;;18.05;13.00;;;1.20;99.90;;;;;;4923378;29;20182;-86
2022/04/11 00:23:28;;;;;;;15.55;12.02;;;1.20;99.90;;;;;;4911667;29;20193;-85
2022/04/11 00:25:54;;;;;;;19.13;11.63;;;1.20;99.90;;;;;;4911613;29;20246;-85
2022/04/11 00:28:19;;;;;;;14.97;10.57;;;1.20;99.90;;;;;;4911807;29;20268;-84
2022/04/11 00:30:45;;;;;;;18.90;12.07;;;1.20;99.90;;;;;;4914393;29;20190;-86
2022/04/11 00:33:10;;;;;;;21.97;13.60;;;1.10;99.90;;;;;;4914137;29;20189;-85
2022/04/11 00:35:36;;;;;;;22.97;13.83;;;1.10;99.90;;;;;;4933129;29;20202;-85
2022/04/11 00:38:01;;;;;;;16.50;9.60;;;1.10;99.90;;;;;;4915310;29;20190;-85
2022/04/11 00:40:27;;;;;;;16.70;10.87;;;1.10;99.90;;;;;;4911288;29;20194;-85
2022/04/11 00:42:53;;;;;;;13.87;10.57;;;1.00;99.90;;;;;;4910028;29;20923;-85
2022/04/11 00:45:18;;;;;;;21.57;12.70;;;1.00;99.90;;;;;;4912911;29;20217;-85
2022/04/11 00:47:46;;;;;;;14.70;10.20;;;1.00;99.90;;;;;;4909955;29;20222;-84
2022/04/11 00:50:13;;;;;;;14.32;10.85;;;1.00;99.90;;;;;;4912358;29;20186;-84
2022/04/11 00:52:43;;;;;;;14.18;10.73;;;0.90;99.90;;;;;;4913210;29;20193;-84
2022/04/11 00:55:09;;;;;;;15.73;9.38;;;0.90;99.90;;;;;;4915981;29;20247;-83
2022/04/11 00:57:35;;;;;;;23.58;14.05;;;0.90;99.90;;;;;;4911413;29;20197;-85
2022/04/11 01:00:06;;;;;;;20.90;14.15;;;0.90;99.90;;;;;;4912034;28;20201;-84
2022/04/11 01:02:32;;;;;;;24.90;14.32;;;0.90;99.90;;;;;;4928618;29;20185;-85
2022/04/11 01:04:57;;;;;;;17.23;13.07;;;0.80;99.90;;;;;;4916681;29;20216;-85
2022/04/11 01:07:23;;;;;;;24.40;14.43;;;0.80;99.90;;;;;;4914946;29;20211;-84
2022/04/11 01:09:49;;;;;;;24.27;14.27;;;0.70;99.90;;;;;;4927469;29;20188;-84
2022/04/11 01:12:16;;;;;;;20.30;12.20;;;0.70;99.90;;;;;;4915656;29;21059;-85
2022/04/11 01:14:42;;;;;;;23.98;15.13;;;0.70;99.90;;;;;;4930806;29;20189;-84
2022/04/11 01:17:11;;;;;;;23.35;14.80;;;0.80;99.90;;;;;;4915354;29;20260;-84
2022/04/11 01:19:37;;;;;;;24.60;14.75;;;0.70;99.90;;;;;;4928860;29;20200;-85
2022/04/11 01:22:03;;;;;;;22.70;15.33;;;0.70;99.90;;;;;;4940587;29;20192;-85
2022/04/11 01:24:28;;;;;;;26.30;16.17;;;0.60;99.90;;;;;;4930337;29;20508;-85
2022/04/11 01:26:54;;;;;;;29.50;17.13;;;0.70;99.90;;;;;;4933454;29;20473;-85
2022/04/11 01:29:21;;;;;;;23.42;15.05;;;0.70;99.90;;;;;;4931647;29;20240;-85
2022/04/11 01:31:47;;;;;;;24.50;15.80;;;0.70;99.90;;;;;;4912397;29;20181;-85
2022/04/11 01:34:12;;;;;;;21.03;15.03;;;0.70;99.90;;;;;;4928390;29;20701;-85
2022/04/11 01:36:38;;;;;;;31.23;15.43;;;0.70;99.90;;;;;;4914168;29;20774;-86
2022/04/11 01:39:03;;;;;;;19.90;13.90;;;0.70;99.90;;;;;;4940452;29;20193;-84
2022/04/11 01:41:29;;;;;;;25.20;15.07;;;0.80;99.90;;;;;;4935969;29;20193;-86
2022/04/11 01:43:54;;;;;;;20.03;14.57;;;0.90;99.90;;;;;;4949037;29;20224;-85
2022/04/11 01:46:20;;;;;;;25.27;12.97;;;1.00;99.90;;;;;;4917860;29;20216;-86
2022/04/11 01:48:45;;;;;;;19.47;14.53;;;1.10;99.90;;;;;;4910435;29;20681;-85
2022/04/11 01:51:13;;;;;;;26.13;14.33;;;1.20;99.90;;;;;;4909078;29;20802;-86
2022/04/11 01:53:39;;;;;;;18.73;11.43;;;1.30;99.90;;;;;;4924118;29;20267;-86
2022/04/11 01:56:04;;;;;;;18.63;11.00;;;1.40;99.90;;;;;;4925183;29;20423;-85
2022/04/11 01:58:30;;;;;;;20.57;10.70;;;1.50;99.90;;;;;;4939139;29;20452;-88
2022/04/11 02:00:58;;;;;;;12.80;10.27;;;1.80;99.90;;;;;;4926851;29;20281;-87
2022/04/11 02:03:25;;;;;;;16.73;10.93;;;1.90;99.90;;;;;;4927706;29;20265;-87
2022/04/11 02:05:50;;;;;;;13.85;10.30;;;2.00;99.90;;;;;;4935193;29;21132;-86
2022/04/11 02:08:16;;;;;;;22.73;12.53;;;2.10;99.90;;;;;;4911261;29;20249;-87
2022/04/11 02:10:42;;;;;;;25.43;13.83;;;2.00;99.90;;;;;;4929829;29;20189;-86
2022/04/11 02:13:08;;;;;;;18.87;11.30;;;1.90;99.90;;;;;;4917955;29;20181;-86
2022/04/11 02:15:34;;;;;;;15.50;11.80;;;1.80;99.90;;;;;;4914135;29;20213;-87
2022/04/11 02:18:00;;;;;;;11.23;9.93;;;1.80;99.90;;;;;;4927962;29;20193;-87
2022/04/11 02:20:26;;;;;;;12.90;8.50;;;1.90;99.90;;;;;;4917636;29;20192;-87
2022/04/11 02:22:57;;;;;;;12.32;7.45;;;2.00;99.90;;;;;;4917029;29;20181;-86
2022/04/11 02:25:25;;;;;;;10.98;8.40;;;2.20;99.90;;;;;;4928964;29;20359;-86
2022/04/11 02:27:51;;;;;;;12.05;7.82;;;2.20;99.90;;;;;;4913697;29;20216;-87
2022/04/11 02:30:18;;;;;;;10.63;8.35;;;2.20;99.90;;;;;;4928783;29;20177;-87
2022/04/11 02:32:44;;;;;;;11.00;7.60;;;2.30;99.90;;;;;;4924615;29;20297;-86
2022/04/11 02:35:11;;;;;;;13.85;9.70;;;2.40;99.90;;;;;;4923570;29;20189;-86
2022/04/11 02:37:37;;;;;;;12.68;9.95;;;2.40;99.90;;;;;;4913817;29;20268;-87
2022/04/11 02:40:04;;;;;;;12.65;11.35;;;2.20;99.90;;;;;;4914349;29;20189;-87
2022/04/11 02:42:30;;;;;;;13.07;9.20;;;2.00;99.90;;;;;;4913855;29;20197;-87
2022/04/11 02:44:56;;;;;;;13.80;9.50;;;1.80;99.90;;;;;;4928110;29;20219;-88
2022/04/11 02:47:21;;;;;;;11.95;8.13;;;1.80;99.90;;;;;;4934113;28;20201;-87
2022/04/11 02:49:47;;;;;;;10.50;7.83;;;2.00;99.90;;;;;;4913825;29;20203;-86
2022/04/11 02:52:14;;;;;;;9.00;6.00;;;2.20;99.90;;;;;;4935410;29;20193;-88
2022/04/11 02:54:40;;;;;;;23.50;10.32;;;2.30;99.90;;;;;;4932068;29;20441;-86
2022/04/11 02:57:07;;;;;;;10.13;6.63;;;2.40;99.90;;;;;;4930897;29;20259;-86
2022/04/11 02:59:33;;;;;;;8.77;5.95;;;2.60;99.90;;;;;;4918742;29;20193;-86
2022/04/11 03:02:00;;;;;;;9.25;5.75;;;2.70;99.90;;;;;;4911599;29;20205;-85
2022/04/11 03:04:26;;;;;;;7.47;5.65;;;2.80;99.90;;;;;;4904343;29;20311;-87
2022/04/11 03:06:53;;;;;;;6.43;5.82;;;2.90;99.90;;;;;;4911789;29;20212;-86
2022/04/11 03:09:18;;;;;;;10.07;6.50;;;3.00;99.90;;;;;;4929588;29;20186;-86
2022/04/11 03:11:44;;;;;;;9.03;6.07;;;3.00;99.90;;;;;;4909066;29;20191;-85
2022/04/11 03:14:10;;;;;;;9.70;6.53;;;3.00;99.90;;;;;;4925644;29;20293;-85
2022/04/11 03:16:36;;;;;;;9.40;5.10;;;3.00;99.90;;;;;;4945898;29;20489;-85
2022/04/11 03:19:01;;;;;;;7.97;5.37;;;3.10;99.90;;;;;;4928301;29;20196;-87
2022/04/11 03:21:27;;;;;;;8.73;5.90;;;3.10;99.90;;;;;;4921858;29;20250;-88
2022/04/11 03:23:52;;;;;;;10.20;7.23;;;2.90;99.90;;;;;;4912100;29;20217;-87
2022/04/11 03:26:18;;;;;;;9.97;6.53;;;2.80;99.90;;;;;;4914338;29;20198;-87
2022/04/11 03:28:44;;;;;;;9.40;6.73;;;2.50;99.90;;;;;;4912454;29;20190;-88
2022/04/11 03:31:11;;;;;;;7.60;6.78;;;2.20;99.90;;;;;;4913081;29;20174;-87
2022/04/11 03:33:36;;;;;;;14.25;7.20;;;2.00;99.90;;;;;;4912543;29;20563;-87
2022/04/11 03:36:02;;;;;;;10.40;7.60;;;1.80;99.90;;;;;;4915866;29;20212;-87
2022/04/11 03:38:28;;;;;;;11.13;7.93;;;1.70;99.90;;;;;;4911048;29;21408;-87
2022/04/11 03:40:53;;;;;;;11.70;8.23;;;1.70;99.90;;;;;;4911863;29;20484;-86
2022/04/11 03:43:19;;;;;;;9.40;6.83;;;1.60;99.90;;;;;;4915607;29;20205;-88
2022/04/11 03:45:44;;;;;;;12.83;7.77;;;1.50;99.90;;;;;;4913909;29;20281;-87
2022/04/11 03:48:10;;;;;;;9.80;7.80;;;1.40;99.90;;;;;;4928482;29;20182;-87
2022/04/11 03:50:36;;;;;;;10.80;8.07;;;1.30;99.90;;;;;;4912339;29;20339;-88
2022/04/11 03:53:02;;;;;;;9.95;7.38;;;1.20;99.90;;;;;;4915051;29;20284;-87
2022/04/11 03:55:27;;;;;;;8.50;7.07;;;1.10;99.90;;;;;;4915336;29;20209;-87
2022/04/11 03:57:53;;;;;;;15.77;8.40;;;1.00;99.90;;;;;;4929555;29;20245;-87
2022/04/11 04:00:18;;;;;;;10.63;8.30;;;1.00;99.90;;;;;;4934119;29;20192;-87
2022/04/11 04:02:44;;;;;;;15.13;9.63;;;0.90;99.90;;;;;;4934227;29;20181;-87
2022/04/11 04:05:10;;;;;;;14.00;9.13;;;0.80;99.90;;;;;;4932391;29;20878;-87
2022/04/11 04:07:36;;;;;;;12.93;8.57;;;0.80;99.90;;;;;;4915000;29;20465;-87
2022/04/11 04:10:03;;;;;;;21.95;9.75;;;0.90;99.90;;;;;;4914149;29;20181;-87
2022/04/11 04:12:29;;;;;;;16.50;9.95;;;0.80;99.90;;;;;;4929163;29;20979;-87
2022/04/11 04:14:55;;;;;;;14.50;10.00;;;0.90;99.90;;;;;;4921955;29;20177;-85
2022/04/11 04:17:20;;;;;;;16.47;10.10;;;0.90;99.90;;;;;;4937475;29;20212;-86
2022/04/11 04:19:46;;;;;;;12.90;10.40;;;;;;;;;;4934567;29;20201;-86
2022/04/11 04:22:12;;;;;;;19.70;11.03;;;1.00;99.90;;;;;;4917905;29;20236;-86
2022/04/11 04:24:37;;;;;;;15.17;10.67;;;1.00;99.90;;;;;;4929525;29;20470;-85
2022/04/11 04:27:07;;;;;;;13.97;10.90;;;0.80;99.90;;;;;;4930534;29;20711;-85
2022/04/11 04:29:33;;;;;;;18.10;10.65;;;0.70;99.90;;;;;;4931836;29;20264;-86
2022/04/11 04:31:58;;;;;;;19.45;11.77;;;0.60;99.90;;;;;;4929400;29;20177;-86
2022/04/11 04:34:29;;;;;;;22.83;13.10;;;0.50;99.90;;;;;;4936170;29;20303;-84
2022/04/11 04:36:55;;;;;;;17.45;12.40;;;0.50;99.90;;;;;;4930253;29;20213;-85
2022/04/11 04:39:20;;;;;;;16.83;12.20;;;0.50;99.90;;;;;;4916466;29;20220;-84
2022/04/11 04:41:46;;;;;;;13.20;10.90;;;0.40;99.90;;;;;;4919178;29;20810;-86
2022/04/11 04:44:11;;;;;;;16.50;11.63;;;0.40;99.90;;;;;;4925162;29;20229;-86
2022/04/11 04:46:37;;;;;;;20.53;11.60;;;;;;;;;;4929288;29;20201;-86
2022/04/11 04:49:03;;;;;;;17.17;11.33;;;0.30;99.90;;;;;;4924104;29;20185;-86
2022/04/11 04:51:29;;;;;;;13.57;10.80;;;0.30;99.90;;;;;;4919016;29;20849;-86
2022/04/11 04:53:55;;;;;;;17.05;11.48;;;0.30;99.90;;;;;;4912115;29;20178;-87
2022/04/11 04:56:21;;;;;;;15.20;11.02;;;0.20;99.90;;;;;;4924118;29;20213;-86
2022/04/11 04:58:47;;;;;;;16.90;12.60;;;0.20;99.90;;;;;;4914562;29;20256;-85
2022/04/11 05:01:14;;;;;;;18.58;12.27;;;0.20;99.90;;;;;;4915791;29;22184;-85
2022/04/11 05:03:40;;;;;;;19.38;13.00;;;0.20;99.90;;;;;;4924511;29;20209;-86
2022/04/11 05:06:06;;;;;;;20.47;13.17;;;0.20;99.90;;;;;;4907786;29;20221;-86
2022/04/11 05:08:32;;;;;;;17.77;12.10;;;0.20;99.90;;;;;;4899287;29;20541;-86
2022/04/11 05:10:58;;;;;;;19.85;13.85;;;0.20;99.90;;;;;;4902550;29;20190;-86
2022/04/11 05:13:24;;;;;;;20.97;14.37;;;0.30;99.90;;;;;;4914548;29;20609;-85
2022/04/11 05:15:50;;;;;;;19.33;13.13;;;0.40;99.90;;;;;;4906702;29;20466;-86
2022/04/11 05:18:15;;;;;;;16.70;12.00;;;0.50;99.90;;;;;;4907744;29;20197;-86
2022/04/11 05:20:41;;;;;;;23.70;12.20;;;0.60;99.90;;;;;;4916443;29;20170;-85
2022/04/11 05:23:07;;;;;;;17.65;12.20;;;0.80;99.90;;;;;;4924694;29;20181;-86
2022/04/11 05:25:33;;;;;;;24.67;13.40;;;0.70;99.90;;;;;;4906823;29;20232;-86
2022/04/11 05:27:58;;;;;;;22.23;12.57;;;0.90;99.90;;;;;;4907994;29;20449;-86
2022/04/11 05:30:24;;;;;;;21.50;12.53;;;1.10;99.90;;;;;;4907921;29;20186;-85
2022/04/11 05:32:50;;;;;;;16.63;12.40;;;1.40;99.90;;;;;;4907313;29;20280;-84
2022/04/11 05:35:15;;;;;;;20.50;12.30;;;2.40;99.90;;;;;;4910981;29;20469;-85
2022/04/11 05:37:41;;;;;;;22.57;12.50;;;2.50;99.90;;;;;;4923454;29;20216;-84
2022/04/11 05:40:09;;;;;;;18.27;11.63;;;3.60;99.90;;;;;;4938140;29;20194;-86
2022/04/11 05:42:37;;;;;;;15.45;11.15;;;4.80;99.90;;;;;;4904391;29;20581;-87
2022/04/11 05:45:03;;;;;;;10.80;9.25;;;6.10;99.90;;;;;;4907105;29;20556;-86
2022/04/11 05:47:29;;;;;;;11.82;7.97;;;7.50;99.90;;;;;;4898875;29;20213;-87
2022/04/11 05:49:55;;;;;;;9.75;7.50;;;8.90;99.90;;;;;;4908169;29;20182;-87
2022/04/11 05:52:21;;;;;;;9.27;7.27;;;10.40;99.90;;;;;;4911534;29;20186;-87
2022/04/11 05:54:46;;;;;;;15.73;6.67;;;11.40;99.90;;;;;;4903421;29;20201;-86
2022/04/11 05:57:13;;;;;;;7.70;6.90;;;12.30;99.90;;;;;;4918274;29;20194;-86
2022/04/11 05:59:39;;;;;;;11.05;7.43;;;12.90;99.90;;;;;;4919697;29;20498;-87
2022/04/11 06:02:05;;;;;;;9.93;7.30;;;13.90;99.90;;;;;;4904013;29;20214;-86
2022/04/11 06:04:31;;;;;;;10.40;7.75;;;14.70;99.90;;;;;;4904449;29;20229;-86
2022/04/11 06:06:57;;;;;;;8.03;6.47;;;15.70;99.90;;;;;;4910128;29;20952;-87
2022/04/11 06:09:22;;;;;;;8.10;7.30;;;16.40;98.00;;;;;;4898314;29;20272;-85
2022/04/11 06:11:48;;;;;;;9.83;6.53;;;17.90;94.90;;;;;;4900012;29;21038;-86
2022/04/11 06:14:13;;;;;;;10.80;7.13;;;18.10;91.50;;;;;;4886978;29;21073;-86
2022/04/11 06:16:39;;;;;;;9.60;7.00;;;17.70;89.20;;;;;;4895783;29;20691;-87
2022/04/11 06:19:05;;;;;;;7.37;6.33;;;;;;;;;;4898125;29;20212;-86
2022/04/11 06:21:30;;;;;;;8.43;6.73;;;16.30;88.60;;;;;;4908652;29;20209;-86
2022/04/11 06:23:56;;;;;;;8.80;6.20;;;15.60;89.80;;;;;;4903920;29;20446;-86
2022/04/11 06:26:21;;;;;;;11.43;7.50;;;16.40;90.90;;;;;;4906118;29;20221;-85
2022/04/11 06:28:47;;;;;;;8.70;7.60;;;15.00;89.90;;;;;;4900223;29;20203;-87
2022/04/11 06:31:14;;;;;;;9.47;6.17;;;13.20;93.60;;;;;;4897938;29;20668;-86
2022/04/11 06:33:40;;;;;;;10.73;7.67;;;14.20;94.90;;;;;;4897213;29;20190;-86
2022/04/11 06:36:06;;;;;;;9.00;8.00;;;14.20;93.90;;;;;;4889401;29;20466;-86
2022/04/11 06:38:32;;;;;;;8.97;7.50;;;14.70;95.00;;;;;;4891807;29;20557;-86
2022/04/11 06:40:57;;;;;;;8.30;7.50;;;15.70;93.20;;;;;;4894743;29;20494;-86
2022/04/11 06:43:23;;;;;;;13.50;7.90;;;16.10;92.10;;;;;;4892274;29;20189;-85
2022/04/11 06:45:49;;;;;;;8.10;7.27;;;17.00;91.10;;;;;;4891778;29;20772;-85
2022/04/11 06:48:15;;;;;;;9.40;7.40;;;17.50;90.40;;;;;;4893062;29;20462;-86
2022/04/11 06:50:40;;;;;;;12.83;8.80;;;16.20;90.50;;;;;;4895066;29;20215;-84
2022/04/11 06:53:06;;;;;;;8.63;6.60;;;16.20;91.00;;;;;;4900921;29;20288;-85
2022/04/11 06:55:32;;;;;;;11.07;7.00;;;16.70;91.20;;;;;;4902602;29;20719;-85
2022/04/11 06:57:59;;;;;;;9.70;7.53;;;17.20;91.00;;;;;;4898882;29;20188;-86
2022/04/11 07:00:24;;;;;;;8.63;6.50;;;18.30;91.00;;;;;;4925159;29;20511;-85
2022/04/11 07:02:50;;;;;;;11.23;8.00;;;19.40;87.80;;;;;;4908715;29;20665;-84
2022/04/11 07:05:16;;;;;;;7.57;6.43;;;18.70;82.40;;;;;;4908475;29;20213;-86
2022/04/11 07:07:41;;;;;;;5.00;4.50;;;20.10;84.60;;;;;;4927273;29;20185;-85
2022/04/11 07:10:09;;;;;;;6.57;4.23;;;22.10;70.70;;;;;;4924611;29;20191;-85
2022/04/11 07:12:41;;;;;;;7.87;4.23;;;22.30;64.00;;;;;;4905412;29;20244;-87
2022/04/11 07:15:08;;;;;;;4.77;4.20;;;21.60;62.50;;;;;;4923941;29;20445;-87
2022/04/11 07:17:34;;;;;;;5.13;4.13;;;20.60;62.40;;;;;;4918209;29;21377;-87
2022/04/11 07:19:59;;;;;;;8.37;4.97;;;19.40;64.10;;;;;;4910606;29;20540;-86
2022/04/11 07:22:25;;;;;;;6.77;4.40;;;20.80;69.20;;;;;;4924000;29;20436;-87
2022/04/11 07:24:51;;;;;;;6.20;4.13;;;18.30;67.60;;;;;;4943610;28;20268;-87
2022/04/11 07:27:16;;;;;;;5.73;4.83;;;18.30;68.00;;;;;;4932982;29;20220;-87
2022/04/11 07:29:42;;;;;;;5.17;4.60;;;18.40;67.90;;;;;;4909872;29;20189;-87
2022/04/11 07:32:07;;;;;;;6.83;4.30;;;18.20;67.90;;;;;;4909369;29;20185;-85
2022/04/11 07:34:33;;;;;;;5.60;5.00;;;17.70;69.70;;;;;;4907394;29;22145;-86
2022/04/11 07:36:59;;;;;;;9.37;5.43;;;17.60;72.40;;;;;;4926866;29;20197;-87
2022/04/11 07:39:24;;;;;;;5.20;4.60;;;17.60;71.30;;;;;;4911563;29;20213;-85
2022/04/11 07:41:53;;;;;;;8.13;4.63;;;17.40;69.90;;;;;;4925416;29;20443;-86
2022/04/11 07:44:19;;;;;;;12.20;5.60;;;17.10;72.20;;;;;;4922993;29;20300;-84
2022/04/11 07:46:44;;;;;;;6.57;5.63;;;17.30;72.70;;;;;;4909504;29;20491;-86
2022/04/11 07:49:10;;;;;;;8.00;5.40;;;16.90;72.60;;;;;;4927755;29;20460;-85
2022/04/11 07:51:35;;;;;;;6.83;4.17;;;17.30;74.80;;;;;;4910747;29;20365;-85
2022/04/11 07:54:01;;;;;;;9.80;4.57;;;17.70;73.50;;;;;;4903354;29;20244;-85
2022/04/11 07:56:28;;;;;;;6.20;4.90;;;17.60;72.30;;;;;;4911194;29;20204;-87
2022/04/11 07:58:54;;;;;;;9.80;5.37;;;19.30;68.30;;;;;;4935267;29;20449;-85
2022/04/11 08:01:21;;;;;;;10.80;4.80;;;19.20;68.90;;;;;;4938177;29;20671;-87
2022/04/11 08:03:47;;;;;;;9.67;5.20;;;19.30;69.90;;;;;;4900745;29;20447;-86
2022/04/11 08:06:13;;;;;;;5.50;5.00;;;19.40;68.00;;;;;;4904849;29;20484;-87
2022/04/11 08:08:44;;;;;;;5.47;3.67;;;19.60;67.10;;;;;;4895542;29;20446;-86
2022/04/11 08:11:17;;;;;;;6.77;4.77;;;20.20;65.20;;;;;;4913331;29;20441;-86
2022/04/11 08:13:43;;;;;;;6.20;4.77;;;20.10;63.70;;;;;;4902770;29;20468;-86
2022/04/11 08:16:09;;;;;;;7.70;4.87;;;19.80;64.60;;;;;;4903568;29;21508;-85
2022/04/11 08:18:34;;;;;;;5.07;4.27;;;20.10;62.80;;;;;;4903993;29;20197;-85
2022/04/11 08:21:04;;;;;;;4.67;4.17;;;19.70;63.00;;;;;;4914764;29;20812;-86
2022/04/11 08:23:30;;;;;;;4.90;4.40;;;18.80;63.00;;;;;;4899539;29;20197;-85
2022/04/11 08:25:56;;;;;;;5.07;4.37;;;18.10;64.80;;;;;;4902332;29;20480;-85
2022/04/11 08:28:22;;;;;;;10.57;4.27;;;17.80;64.10;;;;;;4900371;29;20224;-86
2022/04/11 08:30:48;;;;;;;6.93;4.10;;;17.50;68.60;;;;;;4906206;29;20506;-86
2022/04/11 08:33:13;;;;;;;7.10;3.93;;;17.80;65.80;;;;;;4904759;29;20449;-85
2022/04/11 08:35:39;;;;;;;6.37;4.70;;;17.60;65.10;;;;;;4904586;29;20687;-84
2022/04/11 08:38:05;;;;;;;7.30;4.60;;;17.80;66.60;;;;;;4904194;29;20198;-85
2022/04/11 08:40:31;;;;;;;6.30;4.17;;;;;;;;;;4903907;29;20559;-87
2022/04/11 08:42:59;;;;;;;6.70;4.30;;;19.00;64.20;;;;;;4906395;29;20441;-85
2022/04/11 08:45:26;;;;;;;6.83;4.70;;;19.70;62.00;;;;;;4900813;29;21083;-87
2022/04/11 08:47:56;;;;;;;5.53;4.07;;;19.80;63.30;;;;;;4902031;29;20477;-85
2022/04/11 08:50:23;;;;;;;3.73;2.87;;;20.30;60.00;;;;;;4902741;29;20446;-87
2022/04/11 08:52:50;;;;;;;6.87;3.80;;;20.00;59.50;;;;;;4917462;29;20450;-87
2022/04/11 08:55:17;;;;;;;4.20;3.77;;;19.00;59.70;;;;;;4923312;29;20460;-87
2022/04/11 08:57:42;;;;;;;5.27;3.73;;;18.90;59.80;;;;;;4916969;29;20441;-86
2022/04/11 09:00:10;;;;;;;5.80;3.60;;;18.70;61.90;;;;;;4925284;29;20453;-86
2022/04/11 09:02:35;;;;;;;5.13;3.67;;;18.10;62.60;;;;;;4904396;29;20508;-87
2022/04/11 09:05:03;;;;;;;5.00;3.40;;;18.20;61.60;;;;;;4922760;29;20469;-85
2022/04/11 09:07:55;;;;;;;14.37;5.00;;;18.50;60.80;;;;;;4921897;29;20204;-84
2022/04/11 09:10:30;;;;;;;6.40;3.40;;;18.50;61.50;;;;;;4909076;29;20491;-83
2022/04/11 09:12:58;;;;;;;5.87;3.57;;;19.30;61.00;;;;;;4910477;29;20444;-85
2022/04/11 09:15:25;;;;;;;7.87;4.20;;;20.90;57.20;;;;;;4927899;29;20444;-86
2022/04/11 09:17:52;;;;;;;3.93;3.17;;;20.90;57.40;;;;;;4907427;29;20492;-85
2022/04/11 09:20:25;;;;;;;6.53;3.27;;;20.90;56.60;;;;;;4908449;29;20449;-85
2022/04/11 09:22:51;;;;;;;6.33;3.67;;;20.50;57.20;;;;;;4922905;29;20514;-86
2022/04/11 09:25:18;;;;;;;4.87;2.47;;;19.40;58.70;;;;;;4924789;29;20543;-87
2022/04/11 09:27:45;;;;;;;6.50;3.43;;;19.90;59.40;;;;;;4916018;29;20181;-85
2022/04/11 09:30:22;;;;;;;4.00;2.80;;;19.20;60.30;;;;;;4925396;29;20447;-85
2022/04/11 09:33:05;;;;;;;3.40;2.40;;;18.70;58.70;;;;;;4919934;29;20464;-88
2022/04/11 09:35:45;;;;;;;7.93;3.50;;;18.00;58.20;;;;;;4917832;29;20887;-86
2022/04/11 09:38:21;;;;;;;6.70;2.80;;;17.80;60.40;;;;;;4920434;29;20452;-88
2022/04/11 09:40:55;;;;;;;6.13;3.63;;;17.90;58.80;;;;;;4905846;29;20461;-85
2022/04/11 09:43:29;;;;;;;3.13;2.80;;;16.90;58.20;;;;;;4922495;29;20516;-88
2022/04/11 09:45:56;;;;;;;4.07;3.30;;;16.10;60.70;;;;;;4925417;29;21389;-88
2022/04/11 09:48:27;;;;;;;3.47;2.70;;;16.70;61.30;;;;;;4918766;29;20441;-86
2022/04/11 09:50:55;;;;;;;3.40;2.20;;;17.70;60.10;;;;;;4904071;29;20516;-84
2022/04/11 09:53:29;;;;;;;6.60;3.40;;;18.20;58.30;;;;;;4920756;29;20825;-87
2022/04/11 09:55:55;;;;;;;3.80;2.43;;;18.00;58.10;;;;;;4921377;29;20463;-86
2022/04/11 09:58:23;;;;;;;4.20;2.97;;;17.80;58.70;;;;;;4916620;29;21236;-87
2022/04/11 10:00:51;;;;;;;4.60;2.63;;;17.70;59.10;;;;;;4904226;29;20253;-86
2022/04/11 10:03:20;;;;;;;2.53;2.20;;;17.40;59.30;;;;;;4897447;29;20450;-88
2022/04/11 10:05:46;;;;;;;2.90;2.60;;;17.50;57.60;;;;;;4899098;29;21126;-87
2022/04/11 10:08:15;;;;;;;6.40;2.90;;;17.40;58.40;;;;;;4895031;29;20449;-87
2022/04/11 10:10:42;;;;;;;5.50;3.47;;;17.80;58.40;;;;;;4907808;29;20437;-87
2022/04/11 10:13:15;;;;;;;4.33;2.77;;;17.90;58.90;;;;;;4897369;29;20445;-87
2022/04/11 10:15:43;;;;;;;4.60;3.10;;;17.20;58.50;;;;;;4894210;29;20521;-86
2022/04/11 10:18:12;;;;;;;3.70;2.63;;;16.00;61.70;;;;;;4921313;29;20438;-87
2022/04/11 10:20:41;;;;;;;7.37;3.60;;;16.00;62.60;;;;;;4939048;29;20446;-85
2022/04/11 10:23:31;;;;;;;16.70;3.40;;;15.30;60.90;;;;;;4912011;29;20493;-88
2022/04/11 10:25:59;;;;;;;3.17;2.87;;;14.70;59.90;;;;;;4919829;29;20588;-87
2022/04/11 10:28:27;;;;;;;3.80;2.40;;;14.30;61.10;;;;;;4904789;29;20520;-86
2022/04/11 10:31:09;;;;;;;11.33;4.17;;;14.10;61.30;;;;;;4902894;29;20481;-85
2022/04/11 10:33:54;;;;;;;4.00;2.50;;;13.60;64.10;;;;;;4905544;29;20500;-86
2022/04/11 10:36:36;;;;;;;3.25;2.20;;;13.70;68.70;;;;;;4903342;29;20484;-85
2022/04/11 10:39:16;;;;;;;2.20;2.00;;;13.80;61.00;;;;;;4898660;29;20663;-86
2022/04/11 10:41:54;;;;;;;5.72;2.28;;;13.60;62.70;;;;;;4900950;29;20453;-85
2022/04/11 10:44:56;;;;;;;4.53;2.70;;;13.50;63.10;;;;;;4903686;29;20296;-86
2022/04/11 10:47:22;;;;;;;3.27;2.40;;;13.70;63.10;;;;;;4903989;29;20549;-85
2022/04/11 10:49:48;;;;;;;4.70;2.00;;;13.70;59.80;;;;;;4901485;29;21398;-85
2022/04/11 10:52:40;;;;;;;5.53;1.93;;;14.00;60.90;;;;;;4903632;29;20465;-86
2022/04/11 10:55:12;;;;;;;2.30;2.10;;;14.00;63.70;;;;;;4917281;29;20695;-84
2022/04/11 10:57:43;;;;;;;2.60;2.20;;;14.20;60.30;;;;;;4913331;29;20561;-85
2022/04/11 11:00:11;;;;;;;2.97;2.10;;;14.30;64.30;;;;;;4899586;29;20460;-84
2022/04/11 11:03:00;;;;;;;3.10;2.60;;;14.50;63.70;;;;;;4905404;29;20454;-84
2022/04/11 11:05:48;;;;;;;5.83;2.10;;;14.60;63.70;;;;;;4905106;29;20483;-84
2022/04/11 11:08:14;;;;;;;3.10;2.17;;;14.60;63.20;;;;;;4895599;29;20588;-85
2022/04/11 11:10:46;;;;;;;3.40;1.80;;;14.60;64.90;;;;;;4904335;29;20449;-84
2022/04/11 11:13:24;;;;;;;6.23;2.53;;;14.50;62.80;;;;;;4907770;29;20441;-85
2022/04/11 11:15:50;;;;;;;2.50;2.07;;;14.40;66.80;;;;;;4904649;29;20461;-84
2022/04/11 11:18:16;;;;;;;2.60;2.40;;;14.50;67.30;;;;;;4898931;29;20734;-86
2022/04/11 11:20:56;;;;;;;5.40;2.97;;;14.30;63.20;;;;;;4917320;29;20181;-85
2022/04/11 11:23:27;;;;;;;2.47;2.00;;;14.60;66.00;;;;;;4907061;29;20190;-84
2022/04/11 11:25:54;;;;;;;3.20;2.33;;;14.60;64.40;;;;;;4903442;29;21595;-85
2022/04/11 11:28:20;;;;;;;4.97;2.70;;;15.00;64.10;;;;;;4901433;29;20441;-84
2022/04/11 11:30:46;;;;;;;3.03;1.90;;;14.80;64.90;;;;;;4901349;29;20442;-84
2022/04/11 11:33:16;;;;;;;6.13;2.43;;;14.90;67.50;;;;;;4901416;29;20442;-86
2022/04/11 11:36:02;;;;;;;4.07;2.20;;;14.90;64.40;;;;;;4913923;29;20473;-87
2022/04/11 11:38:30;;;;;;;3.17;2.17;;;14.90;64.10;;;;;;4894806;29;20438;-86
2022/04/11 11:41:00;;;;;;;5.40;2.77;;;14.80;65.20;;;;;;4901487;29;20452;-86
2022/04/11 11:43:28;;;;;;;4.50;2.40;;;14.70;62.60;;;;;;4900531;29;20449;-86
2022/04/11 11:46:01;;;;;;;4.67;2.30;;;14.70;63.40;;;;;;4922290;29;20493;-88
2022/04/11 11:48:31;;;;;;;2.53;1.73;;;14.70;66.00;;;;;;4901704;29;21017;-87
2022/04/11 11:51:00;;;;;;;5.57;2.60;;;14.80;63.30;;;;;;4908738;29;20448;-87
2022/04/11 11:53:38;;;;;;;3.60;1.97;;;14.90;63.40;;;;;;4907051;29;20453;-86
2022/04/11 11:56:07;;;;;;;2.30;2.10;;;15.00;65.00;;;;;;4909880;29;20445;-87
2022/04/11 11:58:39;;;;;;;2.17;1.93;;;15.10;64.40;;;;;;4910149;29;20446;-87
2022/04/11 12:01:09;;;;;;;5.33;2.27;;;15.20;61.70;;;;;;4908081;29;20437;-87
2022/04/11 12:06:26;;;;;;;2.70;2.13;;;15.00;61.70;;;;;;4906573;29;20526;-86
2022/04/11 12:09:03;;;;;;;3.03;1.73;;;15.00;60.00;;;;;;4905174;29;20453;-85
2022/04/11 12:11:29;;;;;;;3.23;1.80;;;15.20;60.30;;;;;;4920400;29;20449;-85
2022/04/11 12:14:06;;;;;;;3.00;2.00;;;15.10;62.70;;;;;;4906807;29;20562;-86
2022/04/11 12:16:35;;;;;;;6.40;2.10;;;15.20;61.50;;;;;;4922595;29;20466;-86
2022/04/11 12:19:02;;;;;;;3.90;2.07;;;15.50;62.90;;;;;;4906060;29;21072;-85
2022/04/11 12:21:39;;;;;;;4.47;1.83;;;15.40;59.10;;;;;;4905731;29;20448;-85
2022/04/11 12:24:08;;;;;;;2.50;2.10;;;15.40;59.40;;;;;;4904469;29;20517;-85
2022/04/11 12:26:35;;;;;;;4.33;2.40;;;15.40;60.80;;;;;;4907905;29;20534;-86
2022/04/11 12:29:07;;;;;;;3.10;2.00;;;15.20;59.70;;;;;;4910048;29;20440;-86
2022/04/11 12:31:33;;;;;;;4.63;1.83;;;15.30;60.10;;;;;;4910915;29;20437;-86
2022/04/11 12:34:12;;;;;;;2.40;2.00;;;15.50;59.40;;;;;;4907739;29;20448;-87
2022/04/11 12:36:55;;;;;;;5.03;2.00;;;15.60;58.80;;;;;;4905115;29;20202;-86
2022/04/11 12:39:21;;;;;;;2.50;1.63;;;15.80;59.50;;;;;;4906069;29;20532;-87
2022/04/11 12:41:50;;;;;;;2.00;1.80;;;16.00;58.20;;;;;;4921537;29;20970;-86
2022/04/11 12:44:18;;;;;;;3.10;2.10;;;16.10;57.00;;;;;;4911103;29;20660;-87
2022/04/11 12:47:08;;;;;;;4.57;2.10;;;16.00;56.70;;;;;;4905647;29;20458;-85
2022/04/11 12:49:45;;;;;;;2.13;1.70;;;16.10;57.10;;;;;;4906126;29;20449;-85
2022/04/11 12:52:11;;;;;;;4.40;2.10;;;15.90;57.10;;;;;;4908475;29;20963;-86